Mediterranean Sea — WDG229 — position and weather

sailwx.info

Track history (hours):
 
Tides and Currents Weather Stations Pressure Air Temp Water Temp Dewpoint Dewpoint Depression Visibility Wind Speed Wind Dir Waves Ship Positions

Mediterranean Sea

Last reported at 2015-May-04 02:33 UTC. Time now 2015-May-04 02:59 UTC.
Position N 39°36' W 074°04'.

Length 33 m; draft 6 m.

Type: Towing. MMSI: 367010390.

Date/timePositionNaut miles runAvg speedWind from/ knotsBaromVisibWave heightAir tempDewpointWater temp
2015-May-04 02:33N 39°36' W 074°04'10 9.7
2015-May-04 01:33N 39°45' W 073°59'10 9.7
2015-May-04 00:33N 39°54' W 073°57'10 9.6
2015-May-03 23:31N 40°04' W 073°55'9 9.3
2015-May-03 22:33N 40°13' W 073°54'9 8.9
2015-May-03 21:33N 40°22' W 073°54'8 7.6
2015-May-03 20:33N 40°30' W 073°56'7 7.0
2015-May-03 19:33N 40°35' W 074°02'6 5.5
2015-May-03 18:33N 40°39' W 074°07'2 2.0
2015-May-03 17:33N 40°39' W 074°10'0 0.0
2015-May-03 16:32N 40°39' W 074°10'0 0.0
2015-May-03 15:33N 40°39' W 074°10'0 0.0
2015-May-03 14:29N 40°39' W 074°10'0 0.0
2015-May-03 13:33N 40°39' W 074°10'0 0.0
2015-May-03 12:32N 40°39' W 074°10'0 0.0
2015-May-03 11:32N 40°39' W 074°10'0 0.0
2015-May-03 10:32N 40°39' W 074°10'0 0.0
2015-May-03 09:32N 40°39' W 074°10'0 0.0
2015-May-03 08:30N 40°39' W 074°10'0 0.0
2015-May-03 07:30N 40°39' W 074°10'0 0.0
2015-May-03 06:32N 40°39' W 074°10'0 0.0
2015-May-03 05:27N 40°39' W 074°10'0 0.0
2015-May-03 04:33N 40°39' W 074°10'0 0.0
2015-May-03 03:33N 40°39' W 074°10'0 0.0
2015-May-03 02:33N 40°39' W 074°10'0 0.0
2015-May-03 01:33N 40°39' W 074°10'0 0.0
2015-May-03 00:33N 40°39' W 074°10'0 0.0
2015-May-02 23:33N 40°39' W 074°10'2 2.1
2015-May-02 22:33N 40°39' W 074°07'2 2.1
2015-May-02 21:30N 40°39' W 074°10'0 0.0
2015-May-02 20:33N 40°39' W 074°10'0 0.0
2015-May-02 19:33N 40°39' W 074°10'0 0.0
2015-May-02 18:33N 40°39' W 074°10'0 0.0
2015-May-02 17:33N 40°39' W 074°10'0 0.0
2015-May-02 16:32N 40°39' W 074°10'0 0.0
2015-May-02 15:33N 40°39' W 074°10'0 0.0
2015-May-01 16:21N 40°39' W 074°10'0 0.0
2015-May-01 15:33N 40°39' W 074°10'0 0.0
2015-Apr-30 13:33N 40°39' W 074°10'0 0.0
2015-Apr-30 12:33N 40°39' W 074°10'0 0.0
2015-Apr-30 11:33N 40°39' W 074°10'0 0.0
2015-Apr-30 10:34N 40°39' W 074°10'0 0.0
2015-Apr-30 09:33N 40°39' W 074°10'0 0.0
2015-Apr-30 08:33N 40°39' W 074°10'0 0.0
2015-Apr-30 07:33N 40°39' W 074°10'0 0.0
2015-Apr-30 06:33N 40°39' W 074°10'0 0.0
2015-Apr-30 05:33N 40°39' W 074°10'0 0.0
2015-Apr-30 04:33N 40°39' W 074°10'0 0.0
2015-Apr-30 03:33N 40°39' W 074°10'0 0.0
2015-Apr-30 02:33N 40°39' W 074°10'0 0.0
2015-Apr-30 01:33N 40°39' W 074°10'0 0.0
2015-Apr-30 00:33N 40°39' W 074°10'0 0.0
2015-Apr-29 23:33N 40°39' W 074°10'0 0.0
2015-Apr-29 22:33N 40°39' W 074°10'0 0.0
2015-Apr-29 21:33N 40°39' W 074°10'0 0.0
2015-Apr-29 20:33N 40°39' W 074°10'0 0.0
2015-Apr-29 19:34N 40°39' W 074°10'0 0.0
2015-Apr-29 18:33N 40°39' W 074°10'0 0.0
2015-Apr-29 17:33N 40°39' W 074°10'0 0.0
2015-Apr-29 16:33N 40°39' W 074°10'0 0.0
2015-Apr-29 15:33N 40°39' W 074°10'0 0.0
2015-Apr-29 13:33N 40°39' W 074°10'0 0.0
2015-Apr-29 12:33N 40°39' W 074°10'0 0.0
2015-Apr-29 11:33N 40°39' W 074°10'0 0.0
2015-Apr-29 10:33N 40°39' W 074°10'0 0.0
2015-Apr-29 09:34N 40°39' W 074°10'0 0.0
2015-Apr-29 08:33N 40°39' W 074°10'0 0.0
2015-Apr-29 07:33N 40°39' W 074°10'0 0.0
2015-Apr-29 06:33N 40°39' W 074°10'25172516.6
2015-Apr-29 05:33S 01°18' W 074°10'25172517.3
2015-Apr-29 04:33N 40°39' W 074°10'0 0.0
2015-Apr-29 03:33N 40°39' W 074°10'0 0.0
2015-Apr-29 02:33N 40°39' W 074°10'0 0.0
2015-Apr-29 01:34N 40°39' W 074°10'0 0.0
2015-Apr-29 00:33N 40°39' W 074°10'0 0.0
2015-Apr-28 23:33N 40°39' W 074°10'0 0.0
2015-Apr-28 22:33N 40°39' W 074°10'0 0.0
2015-Apr-28 21:33N 40°39' W 074°10'0 0.0
2015-Apr-28 20:33N 40°39' W 074°10'0 0.0
2015-Apr-28 19:33N 40°39' W 074°10'0 0.0
2015-Apr-28 18:33N 40°39' W 074°10'0 0.0
2015-Apr-28 17:33N 40°39' W 074°10'0 0.0
2015-Apr-28 16:33N 40°39' W 074°10'0 0.0
2015-Apr-28 15:33N 40°39' W 074°10'0 0.0
2015-Apr-28 14:33N 40°39' W 074°10'0 0.0
2015-Apr-28 13:33N 40°39' W 074°10'0 0.0
2015-Apr-28 12:33N 40°39' W 074°10'0 0.0
2015-Apr-28 11:33N 40°39' W 074°10'0 0.3
2015-Apr-28 10:33N 40°38' W 074°10'0 0.0
2015-Apr-28 09:33N 40°38' W 074°10'0 0.0
2015-Apr-28 08:33N 40°38' W 074°10'0 0.0
2015-Apr-28 07:33N 40°38' W 074°10'0 0.0
2015-Apr-28 06:33N 40°38' W 074°10'0 0.0
2015-Apr-28 05:30N 40°38' W 074°10'0 0.0
2015-Apr-28 04:33N 40°38' W 074°10'0 0.0
2015-Apr-28 03:33N 40°38' W 074°10'0 0.0
2015-Apr-28 02:33N 40°38' W 074°10'0 0.0
2015-Apr-28 01:33N 40°38' W 074°10'4 3.7
2015-Apr-28 00:33N 40°39' W 074°05'9 9.2
2015-Apr-27 23:33N 40°46' W 073°57'8 8.4
2015-Apr-27 22:33N 40°50' W 073°47'2110.4
2015-Apr-27 20:33N 41°00' W 073°23'1110.9
2015-Apr-27 19:33N 41°01' W 073°09'1110.8
2015-Apr-27 18:33N 41°03' W 072°55'1110.5
2015-Apr-27 17:33N 41°06' W 072°41'1010.0
2015-Apr-27 16:33N 41°09' W 072°29'9 8.8
2015-Apr-27 15:33N 41°12' W 072°18'4 4.0
2015-Apr-27 14:34N 41°14' W 072°13'6 6.3
2015-Apr-27 13:33N 41°14' W 072°05'9 8.6
2015-Apr-27 12:33N 41°15' W 071°53'10 9.9
2015-Apr-27 11:33N 41°17' W 071°40'10 9.9
2015-Apr-27 10:34N 41°19' W 071°27'9 9.0
2015-Apr-27 09:33N 41°27' W 071°22'10 9.4
2015-Apr-27 08:33N 41°36' W 071°18'9 9.0
2015-Apr-27 07:33N 41°44' W 071°22'3 2.8
2015-Apr-27 06:34N 41°47' W 071°22'0 0.0
2015-Apr-27 05:33N 41°47' W 071°22'0 0.0
2015-Apr-27 04:33N 41°47' W 071°22'0 0.0
2015-Apr-27 03:33N 41°47' W 071°22'0 0.0
2015-Apr-27 02:33N 41°47' W 071°22'0 0.0
2015-Apr-27 01:33N 41°47' W 071°22'0 0.0
2015-Apr-27 00:33N 41°47' W 071°22'0 0.0
2015-Apr-26 23:33N 41°47' W 071°22'0 0.0
2015-Apr-26 22:33N 41°47' W 071°22'0 0.0
2015-Apr-26 21:33N 41°47' W 071°22'0 0.0
2015-Apr-26 20:32N 41°47' W 071°22'0 0.0
2015-Apr-26 19:30N 41°47' W 071°22'0 0.0
2015-Apr-26 18:30N 41°47' W 071°22'0 0.0
2015-Apr-26 16:21N 41°47' W 071°22'0 0.0
2015-Apr-26 15:11N 41°47' W 071°22'0 0.0
2015-Apr-26 14:26N 41°47' W 071°22'0 0.0
2015-Apr-26 13:18N 41°47' W 071°22'0 0.0
2015-Apr-26 12:33N 41°47' W 071°22'0 0.0
2015-Apr-26 11:32N 41°47' W 071°22'0 0.0
2015-Apr-26 10:33N 41°47' W 071°22'3 2.6
2015-Apr-26 09:33N 41°44' W 071°22'5 4.7
2015-Apr-26 08:33N 41°40' W 071°19'7 6.7
2015-Apr-26 07:33N 41°34' W 071°19'3 3.1
2015-Apr-26 06:33N 41°31' W 071°21'3 3.1
2015-Apr-26 05:33N 41°28' W 071°22'6 5.5
2015-Apr-26 04:33N 41°22' W 071°23'6 6.4
2015-Apr-26 03:33N 41°18' W 071°29'7 6.8
2015-Apr-26 02:34N 41°17' W 071°38'7 6.6
2015-Apr-26 01:34N 41°16' W 071°46'7 7.1
2015-Apr-26 00:34N 41°15' W 071°56'7 7.4
2015-Apr-25 23:34N 41°15' W 072°05'8 7.5
2015-Apr-25 22:34N 41°13' W 072°15'6 6.1
2015-Apr-25 21:34N 41°11' W 072°23'5 5.4
2015-Apr-25 20:33N 41°09' W 072°29'5 4.8
2015-Apr-25 19:34N 41°07' W 072°36'5 5.1
2015-Apr-25 18:34N 41°05' W 072°42'5 5.3
2015-Apr-25 17:33N 41°04' W 072°49'5 5.4
2015-Apr-25 16:34N 41°04' W 072°56'5 5.2
2015-Apr-25 15:34N 41°03' W 073°03'3 3.0
2015-Apr-25 14:33N 41°02' W 073°06'7 7.1
2015-Apr-25 13:33N 41°01' W 073°16'7 7.2
2015-Apr-25 12:33N 41°00' W 073°25'7 7.3
2015-Apr-25 11:33N 40°57' W 073°34'7 6.9
2015-Apr-25 10:30N 40°53' W 073°42'7 6.3
2015-Apr-25 09:25N 40°48' W 073°48'5 5.6
2015-Apr-25 08:33N 40°48' W 073°54'5 5.3
2015-Apr-25 07:33N 40°44' W 073°58'6 5.9
2015-Apr-25 06:33N 40°39' W 074°03'1 0.9
2015-Apr-25 05:33N 40°38' W 074°04'0 0.3
2015-Apr-25 04:33N 40°39' W 074°04'4 3.9
2015-Apr-25 03:33N 40°39' W 074°09'3 3.5
2015-Apr-25 02:33N 40°36' W 074°12'0 0.1
2015-Apr-25 01:33N 40°36' W 074°12'0 0.0
2015-Apr-25 00:32N 40°36' W 074°12'0 0.0
2015-Apr-24 23:33N 40°36' W 074°12'0 0.0
2015-Apr-24 22:33N 40°36' W 074°12'0 0.3
2015-Apr-24 21:27N 40°36' W 074°12'0 0.0
2015-Apr-24 20:18N 40°36' W 074°12'0 0.0
2015-Apr-24 19:30N 40°36' W 074°12'0 0.0
2015-Apr-24 16:31N 40°36' W 074°12'3 3.4
2015-Apr-24 15:33N 40°39' W 074°10'0 0.0
2015-Apr-24 14:33N 40°39' W 074°10'0 0.0
2015-Apr-24 13:33N 40°39' W 074°10'0 0.0
2015-Apr-24 12:33N 40°39' W 074°10'0 0.0
2015-Apr-24 11:33N 40°39' W 074°10'1 1.1
2015-Apr-24 10:33N 40°39' W 074°11'1 0.6
2015-Apr-24 09:33N 40°39' W 074°11'1 0.7
2015-Apr-24 08:33N 40°39' W 074°10'0 0.0
2015-Apr-24 07:33N 40°39' W 074°10'0 0.0
2015-Apr-24 06:33N 40°39' W 074°10'0 0.0
2015-Apr-24 05:33N 40°39' W 074°10'0 0.3
2015-Apr-24 04:33N 40°39' W 074°10'3 3.0
2015-Apr-24 03:33N 40°36' W 074°12'0 0.1
2015-Apr-24 02:33N 40°36' W 074°12'  
Track history (hours):
 
Tides and Currents Weather Stations Pressure Air Temp Water Temp Dewpoint Dewpoint Depression Visibility Wind Speed Wind Dir Waves Ship Positions

Mediterranean Sea

Last reported at 2015-May-04 02:33 UTC. Time now 2015-May-04 02:59 UTC.
Position N 39°36' W 074°04'.

Length 33 m; draft 6 m.

Type: Towing. MMSI: 367010390.

Date/timePositionNaut miles runAvg speedWind from/ knotsBaromVisibWave heightAir tempDewpointWater temp
2015-May-04 02:33N 39°36' W 074°04'10 9.7
2015-May-04 01:33N 39°45' W 073°59'10 9.7
2015-May-04 00:33N 39°54' W 073°57'10 9.6
2015-May-03 23:31N 40°04' W 073°55'9 9.3
2015-May-03 22:33N 40°13' W 073°54'9 8.9
2015-May-03 21:33N 40°22' W 073°54'8 7.6
2015-May-03 20:33N 40°30' W 073°56'7 7.0
2015-May-03 19:33N 40°35' W 074°02'6 5.5
2015-May-03 18:33N 40°39' W 074°07'2 2.0
2015-May-03 17:33N 40°39' W 074°10'0 0.0
2015-May-03 16:32N 40°39' W 074°10'0 0.0
2015-May-03 15:33N 40°39' W 074°10'0 0.0
2015-May-03 14:29N 40°39' W 074°10'0 0.0
2015-May-03 13:33N 40°39' W 074°10'0 0.0
2015-May-03 12:32N 40°39' W 074°10'0 0.0
2015-May-03 11:32N 40°39' W 074°10'0 0.0
2015-May-03 10:32N 40°39' W 074°10'0 0.0
2015-May-03 09:32N 40°39' W 074°10'0 0.0
2015-May-03 08:30N 40°39' W 074°10'0 0.0
2015-May-03 07:30N 40°39' W 074°10'0 0.0
2015-May-03 06:32N 40°39' W 074°10'0 0.0
2015-May-03 05:27N 40°39' W 074°10'0 0.0
2015-May-03 04:33N 40°39' W 074°10'0 0.0
2015-May-03 03:33N 40°39' W 074°10'0 0.0
2015-May-03 02:33N 40°39' W 074°10'0 0.0
2015-May-03 01:33N 40°39' W 074°10'0 0.0
2015-May-03 00:33N 40°39' W 074°10'0 0.0
2015-May-02 23:33N 40°39' W 074°10'2 2.1
2015-May-02 22:33N 40°39' W 074°07'2 2.1
2015-May-02 21:30N 40°39' W 074°10'0 0.0
2015-May-02 20:33N 40°39' W 074°10'0 0.0
2015-May-02 19:33N 40°39' W 074°10'0 0.0
2015-May-02 18:33N 40°39' W 074°10'0 0.0
2015-May-02 17:33N 40°39' W 074°10'0 0.0
2015-May-02 16:32N 40°39' W 074°10'0 0.0
2015-May-02 15:33N 40°39' W 074°10'0 0.0
2015-May-01 16:21N 40°39' W 074°10'0 0.0
2015-May-01 15:33N 40°39' W 074°10'0 0.0
2015-Apr-30 13:33N 40°39' W 074°10'0 0.0
2015-Apr-30 12:33N 40°39' W 074°10'0 0.0
2015-Apr-30 11:33N 40°39' W 074°10'0 0.0
2015-Apr-30 10:34N 40°39' W 074°10'0 0.0
2015-Apr-30 09:33N 40°39' W 074°10'0 0.0
2015-Apr-30 08:33N 40°39' W 074°10'0 0.0
2015-Apr-30 07:33N 40°39' W 074°10'0 0.0
2015-Apr-30 06:33N 40°39' W 074°10'0 0.0
2015-Apr-30 05:33N 40°39' W 074°10'0 0.0
2015-Apr-30 04:33N 40°39' W 074°10'0 0.0
2015-Apr-30 03:33N 40°39' W 074°10'0 0.0
2015-Apr-30 02:33N 40°39' W 074°10'0 0.0
2015-Apr-30 01:33N 40°39' W 074°10'0 0.0
2015-Apr-30 00:33N 40°39' W 074°10'0 0.0
2015-Apr-29 23:33N 40°39' W 074°10'0 0.0
2015-Apr-29 22:33N 40°39' W 074°10'0 0.0
2015-Apr-29 21:33N 40°39' W 074°10'0 0.0
2015-Apr-29 20:33N 40°39' W 074°10'0 0.0
2015-Apr-29 19:34N 40°39' W 074°10'0 0.0
2015-Apr-29 18:33N 40°39' W 074°10'0 0.0
2015-Apr-29 17:33N 40°39' W 074°10'0 0.0
2015-Apr-29 16:33N 40°39' W 074°10'0 0.0
2015-Apr-29 15:33N 40°39' W 074°10'0 0.0
2015-Apr-29 13:33N 40°39' W 074°10'0 0.0
2015-Apr-29 12:33N 40°39' W 074°10'0 0.0
2015-Apr-29 11:33N 40°39' W 074°10'0 0.0
2015-Apr-29 10:33N 40°39' W 074°10'0 0.0
2015-Apr-29 09:34N 40°39' W 074°10'0 0.0
2015-Apr-29 08:33N 40°39' W 074°10'0 0.0
2015-Apr-29 07:33N 40°39' W 074°10'0 0.0
2015-Apr-29 06:33N 40°39' W 074°10'25172516.6
2015-Apr-29 05:33S 01°18' W 074°10'25172517.3
2015-Apr-29 04:33N 40°39' W 074°10'0 0.0
2015-Apr-29 03:33N 40°39' W 074°10'0 0.0
2015-Apr-29 02:33N 40°39' W 074°10'0 0.0
2015-Apr-29 01:34N 40°39' W 074°10'0 0.0
2015-Apr-29 00:33N 40°39' W 074°10'0 0.0
2015-Apr-28 23:33N 40°39' W 074°10'0 0.0
2015-Apr-28 22:33N 40°39' W 074°10'0 0.0
2015-Apr-28 21:33N 40°39' W 074°10'0 0.0
2015-Apr-28 20:33N 40°39' W 074°10'0 0.0
2015-Apr-28 19:33N 40°39' W 074°10'0 0.0
2015-Apr-28 18:33N 40°39' W 074°10'0 0.0
2015-Apr-28 17:33N 40°39' W 074°10'0 0.0
2015-Apr-28 16:33N 40°39' W 074°10'0 0.0
2015-Apr-28 15:33N 40°39' W 074°10'0 0.0
2015-Apr-28 14:33N 40°39' W 074°10'0 0.0
2015-Apr-28 13:33N 40°39' W 074°10'0 0.0
2015-Apr-28 12:33N 40°39' W 074°10'0 0.0
2015-Apr-28 11:33N 40°39' W 074°10'0 0.3
2015-Apr-28 10:33N 40°38' W 074°10'0 0.0
2015-Apr-28 09:33N 40°38' W 074°10'0 0.0
2015-Apr-28 08:33N 40°38' W 074°10'0 0.0
2015-Apr-28 07:33N 40°38' W 074°10'0 0.0
2015-Apr-28 06:33N 40°38' W 074°10'0 0.0
2015-Apr-28 05:30N 40°38' W 074°10'0 0.0
2015-Apr-28 04:33N 40°38' W 074°10'0 0.0
2015-Apr-28 03:33N 40°38' W 074°10'0 0.0
2015-Apr-28 02:33N 40°38' W 074°10'0 0.0
2015-Apr-28 01:33N 40°38' W 074°10'4 3.7
2015-Apr-28 00:33N 40°39' W 074°05'9 9.2
2015-Apr-27 23:33N 40°46' W 073°57'8 8.4
2015-Apr-27 22:33N 40°50' W 073°47'2110.4
2015-Apr-27 20:33N 41°00' W 073°23'1110.9
2015-Apr-27 19:33N 41°01' W 073°09'1110.8
2015-Apr-27 18:33N 41°03' W 072°55'1110.5
2015-Apr-27 17:33N 41°06' W 072°41'1010.0
2015-Apr-27 16:33N 41°09' W 072°29'9 8.8
2015-Apr-27 15:33N 41°12' W 072°18'4 4.0
2015-Apr-27 14:34N 41°14' W 072°13'6 6.3
2015-Apr-27 13:33N 41°14' W 072°05'9 8.6
2015-Apr-27 12:33N 41°15' W 071°53'10 9.9
2015-Apr-27 11:33N 41°17' W 071°40'10 9.9
2015-Apr-27 10:34N 41°19' W 071°27'9 9.0
2015-Apr-27 09:33N 41°27' W 071°22'10 9.4
2015-Apr-27 08:33N 41°36' W 071°18'9 9.0
2015-Apr-27 07:33N 41°44' W 071°22'3 2.8
2015-Apr-27 06:34N 41°47' W 071°22'0 0.0
2015-Apr-27 05:33N 41°47' W 071°22'0 0.0
2015-Apr-27 04:33N 41°47' W 071°22'0 0.0
2015-Apr-27 03:33N 41°47' W 071°22'0 0.0
2015-Apr-27 02:33N 41°47' W 071°22'0 0.0
2015-Apr-27 01:33N 41°47' W 071°22'0 0.0
2015-Apr-27 00:33N 41°47' W 071°22'0 0.0
2015-Apr-26 23:33N 41°47' W 071°22'0 0.0
2015-Apr-26 22:33N 41°47' W 071°22'0 0.0
2015-Apr-26 21:33N 41°47' W 071°22'0 0.0
2015-Apr-26 20:32N 41°47' W 071°22'0 0.0
2015-Apr-26 19:30N 41°47' W 071°22'0 0.0
2015-Apr-26 18:30N 41°47' W 071°22'0 0.0
2015-Apr-26 16:21N 41°47' W 071°22'0 0.0
2015-Apr-26 15:11N 41°47' W 071°22'0 0.0
2015-Apr-26 14:26N 41°47' W 071°22'0 0.0
2015-Apr-26 13:18N 41°47' W 071°22'0 0.0
2015-Apr-26 12:33N 41°47' W 071°22'0 0.0
2015-Apr-26 11:32N 41°47' W 071°22'0 0.0
2015-Apr-26 10:33N 41°47' W 071°22'3 2.6
2015-Apr-26 09:33N 41°44' W 071°22'5 4.7
2015-Apr-26 08:33N 41°40' W 071°19'7 6.7
2015-Apr-26 07:33N 41°34' W 071°19'3 3.1
2015-Apr-26 06:33N 41°31' W 071°21'3 3.1
2015-Apr-26 05:33N 41°28' W 071°22'6 5.5
2015-Apr-26 04:33N 41°22' W 071°23'6 6.4
2015-Apr-26 03:33N 41°18' W 071°29'7 6.8
2015-Apr-26 02:34N 41°17' W 071°38'7 6.6
2015-Apr-26 01:34N 41°16' W 071°46'7 7.1
2015-Apr-26 00:34N 41°15' W 071°56'7 7.4
2015-Apr-25 23:34N 41°15' W 072°05'8 7.5
2015-Apr-25 22:34N 41°13' W 072°15'6 6.1
2015-Apr-25 21:34N 41°11' W 072°23'5 5.4
2015-Apr-25 20:33N 41°09' W 072°29'5 4.8
2015-Apr-25 19:34N 41°07' W 072°36'5 5.1
2015-Apr-25 18:34N 41°05' W 072°42'5 5.3
2015-Apr-25 17:33N 41°04' W 072°49'5 5.4
2015-Apr-25 16:34N 41°04' W 072°56'5 5.2
2015-Apr-25 15:34N 41°03' W 073°03'3 3.0
2015-Apr-25 14:33N 41°02' W 073°06'7 7.1
2015-Apr-25 13:33N 41°01' W 073°16'7 7.2
2015-Apr-25 12:33N 41°00' W 073°25'7 7.3
2015-Apr-25 11:33N 40°57' W 073°34'7 6.9
2015-Apr-25 10:30N 40°53' W 073°42'7 6.3
2015-Apr-25 09:25N 40°48' W 073°48'5 5.6
2015-Apr-25 08:33N 40°48' W 073°54'5 5.3
2015-Apr-25 07:33N 40°44' W 073°58'6 5.9
2015-Apr-25 06:33N 40°39' W 074°03'1 0.9
2015-Apr-25 05:33N 40°38' W 074°04'0 0.3
2015-Apr-25 04:33N 40°39' W 074°04'4 3.9
2015-Apr-25 03:33N 40°39' W 074°09'3 3.5
2015-Apr-25 02:33N 40°36' W 074°12'0 0.1
2015-Apr-25 01:33N 40°36' W 074°12'0 0.0
2015-Apr-25 00:32N 40°36' W 074°12'0 0.0
2015-Apr-24 23:33N 40°36' W 074°12'0 0.0
2015-Apr-24 22:33N 40°36' W 074°12'0 0.3
2015-Apr-24 21:27N 40°36' W 074°12'0 0.0
2015-Apr-24 20:18N 40°36' W 074°12'0 0.0
2015-Apr-24 19:30N 40°36' W 074°12'0 0.0
2015-Apr-24 16:31N 40°36' W 074°12'3 3.4
2015-Apr-24 15:33N 40°39' W 074°10'0 0.0
2015-Apr-24 14:33N 40°39' W 074°10'0 0.0
2015-Apr-24 13:33N 40°39' W 074°10'0 0.0
2015-Apr-24 12:33N 40°39' W 074°10'0 0.0
2015-Apr-24 11:33N 40°39' W 074°10'1 1.1
2015-Apr-24 10:33N 40°39' W 074°11'1 0.6
2015-Apr-24 09:33N 40°39' W 074°11'1 0.7
2015-Apr-24 08:33N 40°39' W 074°10'0 0.0
2015-Apr-24 07:33N 40°39' W 074°10'0 0.0
2015-Apr-24 06:33N 40°39' W 074°10'0 0.0
2015-Apr-24 05:33N 40°39' W 074°10'0 0.3
2015-Apr-24 04:33N 40°39' W 074°10'3 3.0
2015-Apr-24 03:33N 40°36' W 074°12'0 0.1
2015-Apr-24 02:33N 40°36' W 074°12'  

Dump ship's entire track history